Time;durP1;ratioP1;P1;durP2;ratioP2;P2;SDS_P1;SDS_P2;PMS_P1;PMS_P2;Temp;Humidity;BMP_temperature;BMP_pressure;BME280_temperature;BME280_humidity;BME280_pressure;Samples;Min_cycle;Max_cycle;Signal;HPM_P1;HPM_P2
2021/03/22 00:01:42;;;;;;;23.73;7.57;;;4.90;98.30;;;;;;5174311;23;20225;-79
2021/03/22 00:03:44;;;;;;;11.00;5.20;;;4.90;98.30;;;;;;5167658;23;20221;-79
2021/03/22 00:05:47;;;;;;;14.67;6.70;;;4.90;98.30;;;;;;5174905;23;20690;-79
2021/03/22 00:07:49;;;;;;;16.02;5.90;;;4.90;98.30;;;;;;5166597;23;20451;-79
2021/03/22 00:09:51;;;;;;;19.52;5.70;;;4.90;98.30;;;;;;5166887;23;20678;-79
2021/03/22 00:11:54;;;;;;;15.48;5.40;;;4.90;98.30;;;;;;5175212;23;20704;-79
2021/03/22 00:13:56;;;;;;;23.50;7.28;;;4.90;98.30;;;;;;5166326;23;20281;-79
2021/03/22 00:16:01;;;;;;;19.30;5.63;;;4.90;98.30;;;;;;5166672;23;20711;-79
2021/03/22 00:18:07;;;;;;;20.50;7.63;;;4.90;98.30;;;;;;5166703;23;20205;-79
2021/03/22 00:20:12;;;;;;;15.15;5.90;;;4.80;98.30;;;;;;5166038;23;20679;-79
2021/03/22 00:22:14;;;;;;;16.88;6.45;;;4.70;98.30;;;;;;5175081;23;20284;-78
2021/03/22 00:24:16;;;;;;;16.15;5.68;;;4.70;98.30;;;;;;5174972;23;20228;-79
2021/03/22 00:26:18;;;;;;;13.35;5.68;;;4.70;98.30;;;;;;5174535;23;20284;-78
2021/03/22 00:28:22;;;;;;;22.23;5.22;;;4.70;98.30;;;;;;5175158;23;20204;-79
2021/03/22 00:30:27;;;;;;;21.50;7.07;;;4.70;98.30;;;;;;5174273;23;20281;-78
2021/03/22 00:32:29;;;;;;;16.42;5.70;;;4.70;98.30;;;;;;5166339;23;20660;-79
2021/03/22 00:34:32;;;;;;;22.33;6.53;;;4.60;98.30;;;;;;5166257;23;20201;-79
2021/03/22 00:36:34;;;;;;;22.50;5.20;;;4.60;98.30;;;;;;5166152;23;20581;-79
2021/03/22 00:38:37;;;;;;;15.93;6.13;;;4.70;98.30;;;;;;5175525;23;20201;-80
2021/03/22 00:40:41;;;;;;;16.55;5.82;;;4.60;98.30;;;;;;5167173;23;20232;-78
2021/03/22 00:42:43;;;;;;;21.27;6.10;;;4.60;98.30;;;;;;5176271;23;20231;-80
2021/03/22 00:44:46;;;;;;;25.10;5.97;;;4.60;98.30;;;;;;5176047;23;20303;-79
2021/03/22 00:46:48;;;;;;;15.73;5.97;;;4.60;98.30;;;;;;5167472;23;20286;-79
2021/03/22 00:48:51;;;;;;;21.58;6.38;;;4.60;98.30;;;;;;5175514;23;20661;-79
2021/03/22 00:50:53;;;;;;;20.23;6.97;;;4.60;98.30;;;;;;5176028;23;20194;-79
2021/03/22 00:52:56;;;;;;;19.00;6.82;;;4.60;98.30;;;;;;5176179;23;20506;-78
2021/03/22 00:54:58;;;;;;;21.67;5.78;;;4.60;98.30;;;;;;5174551;23;20200;-80
2021/03/22 00:57:00;;;;;;;22.73;6.17;;;4.50;98.30;;;;;;5175086;23;20281;-79
2021/03/22 00:59:02;;;;;;;18.20;6.83;;;4.50;98.30;;;;;;5174619;23;20475;-79
2021/03/22 01:01:04;;;;;;;18.48;5.95;;;4.40;98.30;;;;;;5166615;23;21296;-79
2021/03/22 01:03:08;;;;;;;18.70;6.57;;;4.50;98.30;;;;;;5176330;23;20197;-79
2021/03/22 01:05:12;;;;;;;17.35;6.35;;;4.50;98.30;;;;;;5167167;23;20213;-78
2021/03/22 01:07:15;;;;;;;23.17;6.88;;;4.40;98.30;;;;;;5175231;23;20197;-79
2021/03/22 01:09:17;;;;;;;19.38;7.30;;;4.40;98.30;;;;;;5165855;23;20205;-78
2021/03/22 01:11:21;;;;;;;22.10;6.30;;;4.40;98.30;;;;;;5166787;23;20288;-79
2021/03/22 01:13:26;;;;;;;17.30;6.10;;;4.40;98.30;;;;;;5174888;23;20216;-78
2021/03/22 01:15:46;;;;;;;25.83;7.18;;;4.30;98.30;;;;;;5165500;23;20236;-79
2021/03/22 01:17:49;;;;;;;18.27;5.60;;;4.30;98.30;;;;;;5175441;23;20568;-78
2021/03/22 01:19:51;;;;;;;15.18;5.88;;;4.30;98.30;;;;;;5166850;23;20204;-79
2021/03/22 01:21:55;;;;;;;18.92;5.25;;;4.30;98.30;;;;;;5176099;23;20205;-79
2021/03/22 01:23:58;;;;;;;21.25;6.43;;;4.30;98.30;;;;;;5176353;23;20197;-78
2021/03/22 01:26:00;;;;;;;19.45;6.05;;;4.30;98.30;;;;;;5167888;23;20209;-78
2021/03/22 01:28:04;;;;;;;15.95;5.85;;;4.20;98.30;;;;;;5167383;23;20280;-78
2021/03/22 01:30:13;;;;;;;14.90;5.63;;;4.20;98.30;;;;;;5166878;23;20208;-79
2021/03/22 01:32:15;;;;;;;17.52;5.68;;;4.30;98.30;;;;;;5176613;23;20228;-79
2021/03/22 01:34:17;;;;;;;17.45;6.10;;;4.30;98.30;;;;;;5175446;23;20201;-79
2021/03/22 01:36:22;;;;;;;19.92;5.50;;;4.20;98.30;;;;;;5173936;23;20227;-79
2021/03/22 01:38:24;;;;;;;22.23;6.75;;;4.20;98.30;;;;;;5175128;23;20682;-78
2021/03/22 01:40:46;;;;;;;20.20;5.88;;;4.20;98.30;;;;;;5166209;23;20208;-79
2021/03/22 01:42:59;;;;;;;30.67;7.30;;;4.30;98.30;;;;;;5166333;23;20209;-79
2021/03/22 01:45:04;;;;;;;17.70;6.78;;;4.20;98.30;;;;;;5165652;23;20213;-79
2021/03/22 01:47:15;;;;;;;18.63;6.50;;;4.20;98.30;;;;;;5165759;23;21200;-78
2021/03/22 01:49:19;;;;;;;21.35;6.40;;;4.20;98.30;;;;;;5174827;23;20199;-78
2021/03/22 01:51:21;;;;;;;15.25;5.15;;;4.20;98.30;;;;;;5167212;23;20717;-78
2021/03/22 01:53:24;;;;;;;18.10;7.10;;;4.20;98.30;;;;;;5175616;23;20196;-78
2021/03/22 01:55:27;;;;;;;17.83;5.20;;;4.20;98.30;;;;;;5166969;23;20232;-78
2021/03/22 01:57:31;;;;;;;28.23;6.28;;;4.20;98.30;;;;;;5167273;23;20531;-79
2021/03/22 01:59:33;;;;;;;18.95;5.88;;;4.20;98.30;;;;;;5166240;23;20208;-79
2021/03/22 02:01:36;;;;;;;18.30;6.30;;;4.20;98.30;;;;;;5175732;23;20287;-78
2021/03/22 02:03:38;;;;;;;17.10;6.82;;;4.20;98.30;;;;;;5166567;23;20208;-79
2021/03/22 02:05:43;;;;;;;19.38;6.38;;;4.20;98.30;;;;;;5167312;23;20756;-79
2021/03/22 02:07:51;;;;;;;22.20;6.78;;;4.20;98.30;;;;;;5164377;23;20713;-79
2021/03/22 02:09:53;;;;;;;19.75;6.55;;;4.20;98.30;;;;;;5166764;23;20211;-79
2021/03/22 02:11:55;;;;;;;18.70;6.15;;;4.20;98.30;;;;;;5167458;23;20304;-79
2021/03/22 02:14:02;;;;;;;21.30;6.20;;;4.10;98.30;;;;;;5167268;23;20205;-80
2021/03/22 02:16:08;;;;;;;17.90;6.20;;;4.10;98.30;;;;;;5167115;23;20275;-79
2021/03/22 02:18:18;;;;;;;20.08;5.65;;;4.00;98.30;;;;;;5167113;23;20335;-79
2021/03/22 02:21:01;;;;;;;23.67;6.82;;;4.00;98.30;;;;;;5166446;23;20341;-79
2021/03/22 02:23:50;;;;;;;21.58;7.30;;;4.00;98.30;;;;;;5175690;23;20280;-78
2021/03/22 02:25:57;;;;;;;16.15;6.35;;;4.10;98.30;;;;;;5088974;23;20286;-78
2021/03/22 02:28:39;;;;;;;22.75;6.95;;;4.10;98.30;;;;;;5135509;23;20668;-79
2021/03/22 02:31:13;;;;;;;25.58;7.97;;;4.10;98.30;;;;;;5166581;23;20208;-78
2021/03/22 02:33:54;;;;;;;20.83;7.35;;;4.00;98.30;;;;;;5166798;23;20208;-78
2021/03/22 02:36:03;;;;;;;25.45;7.45;;;4.10;98.30;;;;;;5176000;23;20236;-78
2021/03/22 02:38:10;;;;;;;26.58;7.43;;;4.00;98.30;;;;;;5175904;23;20303;-78
2021/03/22 02:40:25;;;;;;;23.58;6.70;;;4.00;98.30;;;;;;5175021;23;20276;-78
2021/03/22 02:42:29;;;;;;;30.73;7.45;;;4.00;98.30;;;;;;5175803;23;20197;-79
2021/03/22 02:44:34;;;;;;;20.20;8.02;;;4.00;98.30;;;;;;5167329;23;20219;-78
2021/03/22 02:46:57;;;;;;;24.20;6.97;;;4.00;98.30;;;;;;5165366;23;20221;-79
2021/03/22 02:49:01;;;;;;;20.17;6.95;;;4.00;98.30;;;;;;5174199;23;20552;-79
2021/03/22 02:51:16;;;;;;;23.90;6.18;;;4.00;98.30;;;;;;5174896;23;20201;-79
2021/03/22 02:53:43;;;;;;;23.58;8.85;;;4.00;98.30;;;;;;5166733;23;20212;-79
2021/03/22 02:55:57;;;;;;;18.63;6.88;;;4.00;98.30;;;;;;5166447;23;20205;-79
2021/03/22 02:58:02;;;;;;;18.33;7.75;;;3.90;98.30;;;;;;5174192;23;20711;-79
2021/03/22 03:00:08;;;;;;;17.60;6.95;;;3.90;98.30;;;;;;5165605;23;20205;-78
2021/03/22 03:02:13;;;;;;;23.23;6.97;;;3.90;98.30;;;;;;5165939;23;20288;-79
2021/03/22 03:04:17;;;;;;;31.15;9.15;;;3.90;98.30;;;;;;5175175;23;20205;-79
2021/03/22 03:06:20;;;;;;;18.38;6.03;;;3.80;98.30;;;;;;5175419;23;20201;-79
2021/03/22 03:08:28;;;;;;;18.60;6.90;;;3.80;98.30;;;;;;5175362;23;20204;-79
2021/03/22 03:10:30;;;;;;;21.55;6.75;;;3.80;98.30;;;;;;5166326;23;20287;-81
2021/03/22 03:12:32;;;;;;;15.30;5.95;;;3.70;98.30;;;;;;5175682;23;20203;-81
2021/03/22 03:14:34;;;;;;;20.02;7.38;;;3.70;98.30;;;;;;5164872;23;20201;-81
2021/03/22 03:16:36;;;;;;;27.20;7.22;;;3.70;98.30;;;;;;5173310;23;20220;-80
2021/03/22 03:18:38;;;;;;;26.05;7.82;;;3.70;98.30;;;;;;5165579;23;20678;-80
2021/03/22 03:20:40;;;;;;;28.92;6.88;;;3.70;98.30;;;;;;5164713;23;20219;-80
2021/03/22 03:22:47;;;;;;;27.83;7.20;;;3.70;98.30;;;;;;5173255;23;20227;-80
2021/03/22 03:24:49;;;;;;;16.85;6.10;;;3.70;98.30;;;;;;5173946;23;20819;-81
2021/03/22 03:26:51;;;;;;;23.63;7.75;;;3.70;98.30;;;;;;5165641;23;20288;-81
2021/03/22 03:28:53;;;;;;;24.15;8.15;;;3.70;98.30;;;;;;5165698;23;20223;-81
2021/03/22 03:30:55;;;;;;;34.35;10.75;;;3.70;98.30;;;;;;5176328;23;20247;-80
2021/03/22 03:32:58;;;;;;;32.35;8.13;;;3.70;98.30;;;;;;5175734;23;20691;-80
2021/03/22 03:35:01;;;;;;;19.75;7.03;;;3.70;98.30;;;;;;5176046;23;20990;-80
2021/03/22 03:37:03;;;;;;;25.50;8.13;;;3.70;98.30;;;;;;5175256;23;20224;-81
2021/03/22 03:39:07;;;;;;;17.05;6.50;;;3.60;98.30;;;;;;5174457;23;20283;-81
2021/03/22 03:41:09;;;;;;;18.85;7.60;;;3.50;98.30;;;;;;5174826;23;20213;-79
2021/03/22 03:43:12;;;;;;;23.38;7.30;;;3.50;98.30;;;;;;5175052;23;20231;-80
2021/03/22 03:45:16;;;;;;;24.40;7.30;;;3.50;98.30;;;;;;5166553;23;20287;-80
2021/03/22 03:47:18;;;;;;;19.63;7.03;;;3.50;98.30;;;;;;5174781;23;20207;-80
2021/03/22 03:49:21;;;;;;;25.55;7.78;;;3.50;98.30;;;;;;5170806;23;20243;-80
2021/03/22 03:51:23;;;;;;;24.05;7.80;;;3.50;98.30;;;;;;5173754;23;20253;-81
2021/03/22 03:53:25;;;;;;;21.75;7.32;;;3.50;98.30;;;;;;5174316;23;20207;-80
2021/03/22 03:55:30;;;;;;;20.00;6.43;;;3.60;98.30;;;;;;5173894;23;20716;-80
2021/03/22 03:57:32;;;;;;;20.73;7.80;;;3.60;98.30;;;;;;5173119;23;20216;-80
2021/03/22 03:59:34;;;;;;;27.95;7.43;;;3.60;98.30;;;;;;5181130;23;20220;-80
2021/03/22 04:01:37;;;;;;;21.15;6.40;;;3.70;98.30;;;;;;5179929;23;20220;-81
2021/03/22 04:03:40;;;;;;;13.45;6.15;;;3.70;98.30;;;;;;5172234;23;20220;-81
2021/03/22 04:05:42;;;;;;;23.15;7.88;;;3.60;98.30;;;;;;5177655;23;20597;-81
2021/03/22 04:07:44;;;;;;;19.33;7.88;;;3.60;98.30;;;;;;5177267;23;20668;-80
2021/03/22 04:09:48;;;;;;;19.35;6.15;;;3.60;98.30;;;;;;5167491;23;20280;-80
2021/03/22 04:11:51;;;;;;;27.20;9.18;;;3.60;98.30;;;;;;5176673;23;20205;-81
2021/03/22 04:13:54;;;;;;;20.13;8.05;;;3.60;98.30;;;;;;5169010;23;20220;-80
2021/03/22 04:15:56;;;;;;;69.32;36.45;;;3.60;98.30;;;;;;5176747;23;20197;-80
2021/03/22 04:18:08;;;;;;;256.25;150.38;;;3.60;98.30;;;;;;5176422;23;20207;-81
2021/03/22 04:20:11;;;;;;;101.32;51.08;;;3.70;98.30;;;;;;5175821;23;20205;-80
2021/03/22 04:22:13;;;;;;;38.65;16.50;;;3.70;98.30;;;;;;5168026;23;20235;-81
2021/03/22 04:24:17;;;;;;;30.42;9.38;;;3.70;98.30;;;;;;5176445;23;20594;-80
2021/03/22 04:26:20;;;;;;;20.58;7.75;;;3.70;98.30;;;;;;5168289;23;20267;-80
2021/03/22 04:28:23;;;;;;;73.43;37.20;;;3.70;98.30;;;;;;5176676;23;20526;-80
2021/03/22 04:30:25;;;;;;;55.00;26.65;;;3.60;98.30;;;;;;5176335;23;20207;-80
2021/03/22 04:32:27;;;;;;;115.35;60.78;;;3.50;98.30;;;;;;5169035;23;20275;-80
2021/03/22 04:34:29;;;;;;;30.00;13.60;;;3.40;98.30;;;;;;5168326;23;20220;-80
2021/03/22 04:36:33;;;;;;;27.00;9.10;;;3.40;98.30;;;;;;5168508;23;20618;-81
2021/03/22 04:38:35;;;;;;;21.17;7.82;;;3.30;98.30;;;;;;5176207;23;20208;-80
2021/03/22 04:40:37;;;;;;;23.60;8.88;;;3.30;98.30;;;;;;5176409;23;20346;-80
2021/03/22 04:42:39;;;;;;;68.70;32.75;;;3.30;98.30;;;;;;5177581;23;20716;-81
2021/03/22 04:44:43;;;;;;;92.60;45.67;;;3.30;98.30;;;;;;5169557;23;20240;-82
2021/03/22 04:46:45;;;;;;;227.13;119.35;;;3.40;98.30;;;;;;5169314;23;20287;-81
2021/03/22 04:48:47;;;;;;;51.08;22.95;;;3.50;98.30;;;;;;5177767;23;20208;-82
2021/03/22 04:50:49;;;;;;;41.15;16.75;;;3.50;98.30;;;;;;5177819;23;20207;-81
2021/03/22 04:52:51;;;;;;;40.00;15.88;;;3.40;98.30;;;;;;5170005;23;20205;-81
2021/03/22 04:54:53;;;;;;;37.42;13.52;;;3.40;98.30;;;;;;5178291;23;20207;-81
2021/03/22 04:56:55;;;;;;;31.20;9.35;;;3.40;98.30;;;;;;5177786;23;20288;-81
2021/03/22 04:58:57;;;;;;;25.95;9.10;;;3.40;98.30;;;;;;5177757;23;20201;-81
2021/03/22 05:01:00;;;;;;;23.77;8.82;;;3.50;98.30;;;;;;5168247;23;20205;-81
2021/03/22 05:03:02;;;;;;;23.65;8.68;;;3.50;98.30;;;;;;5176890;23;20525;-82
2021/03/22 05:05:06;;;;;;;23.65;9.43;;;3.50;98.30;;;;;;5177027;23;20211;-81
2021/03/22 05:07:08;;;;;;;27.52;8.70;;;3.40;98.30;;;;;;5176048;23;20567;-81
2021/03/22 05:09:10;;;;;;;28.98;8.88;;;3.50;98.30;;;;;;5176881;23;20232;-81
2021/03/22 05:11:12;;;;;;;27.63;9.18;;;3.50;98.30;;;;;;5177289;23;20280;-81
2021/03/22 05:13:16;;;;;;;20.70;7.55;;;3.60;98.30;;;;;;5178119;23;20228;-81
2021/03/22 05:15:19;;;;;;;22.70;8.18;;;3.60;98.30;;;;;;5175748;23;20258;-81
2021/03/22 05:17:22;;;;;;;22.98;7.68;;;3.70;98.30;;;;;;5177733;23;20813;-80
2021/03/22 05:19:25;;;;;;;18.17;7.45;;;3.70;98.30;;;;;;5181890;23;20205;-80
2021/03/22 05:21:27;;;;;;;15.80;7.50;;;3.70;98.30;;;;;;5173809;23;20288;-80
2021/03/22 05:23:29;;;;;;;24.60;8.93;;;3.80;98.30;;;;;;5181704;23;20204;-80
2021/03/22 05:25:31;;;;;;;24.50;9.05;;;3.80;98.30;;;;;;5181740;23;20284;-81
2021/03/22 05:27:33;;;;;;;22.13;9.98;;;3.90;98.30;;;;;;5181657;23;20201;-80
2021/03/22 05:29:35;;;;;;;21.13;9.20;;;3.90;98.30;;;;;;5174025;23;20205;-80
2021/03/22 05:31:38;;;;;;;26.30;8.40;;;3.90;98.30;;;;;;5174510;23;20216;-80
2021/03/22 05:33:41;;;;;;;23.80;8.77;;;3.90;98.30;;;;;;5179398;23;20205;-80
2021/03/22 05:35:45;;;;;;;33.83;8.38;;;3.90;98.30;;;;;;5177539;23;20197;-81
2021/03/22 05:37:47;;;;;;;30.30;9.88;;;4.00;98.30;;;;;;5168844;23;20268;-80
2021/03/22 05:39:49;;;;;;;41.85;14.95;;;4.10;98.30;;;;;;5177224;23;20225;-81
2021/03/22 05:42:02;;;;;;;47.50;26.17;;;4.20;98.30;;;;;;5177426;23;20207;-80
2021/03/22 05:44:14;;;;;;;71.25;39.28;;;4.20;98.30;;;;;;5178148;23;20197;-80
2021/03/22 05:46:24;;;;;;;37.08;18.58;;;4.30;98.30;;;;;;5168958;23;20695;-80
2021/03/22 05:48:41;;;;;;;20.42;10.63;;;4.30;98.30;;;;;;5169683;23;20204;-80
2021/03/22 05:50:58;;;;;;;30.00;10.95;;;4.30;98.30;;;;;;5177226;23;20197;-80
2021/03/22 05:53:27;;;;;;;26.50;10.15;;;4.30;98.30;;;;;;5168341;23;20247;-80
2021/03/22 05:55:50;;;;;;;24.25;7.88;;;4.40;98.30;;;;;;5168394;23;20205;-80
2021/03/22 05:58:05;;;;;;;23.10;8.73;;;4.40;98.30;;;;;;5176110;23;20197;-80
2021/03/22 06:00:18;;;;;;;31.40;9.05;;;4.40;98.30;;;;;;5167381;23;20513;-81
2021/03/22 06:02:30;;;;;;;32.08;11.32;;;4.40;98.30;;;;;;5175611;23;20309;-80
2021/03/22 06:04:38;;;;;;;28.85;9.00;;;4.40;98.30;;;;;;5168573;23;20204;-81
2021/03/22 06:06:47;;;;;;;29.77;8.68;;;4.40;98.30;;;;;;5168024;23;20250;-80
2021/03/22 06:08:54;;;;;;;25.65;9.02;;;4.40;98.30;;;;;;5166282;23;20215;-82
2021/03/22 06:10:57;;;;;;;22.60;8.63;;;4.30;98.30;;;;;;5174408;23;20532;-81
2021/03/22 06:13:02;;;;;;;20.00;7.75;;;4.40;98.30;;;;;;5174167;23;20221;-81
2021/03/22 06:15:16;;;;;;;28.85;7.57;;;4.30;98.30;;;;;;5173998;23;20667;-80
2021/03/22 06:17:30;;;;;;;21.50;7.75;;;4.30;98.30;;;;;;5173972;23;20664;-80
2021/03/22 06:19:47;;;;;;;21.25;8.57;;;4.40;98.30;;;;;;5165514;23;20216;-81
2021/03/22 06:21:51;;;;;;;23.85;7.75;;;4.40;98.30;;;;;;5174183;23;20235;-80
2021/03/22 06:23:53;;;;;;;28.83;9.55;;;4.50;98.30;;;;;;5174536;23;20197;-80
2021/03/22 06:25:55;;;;;;;22.70;7.60;;;4.50;98.30;;;;;;5166132;23;20280;-80
2021/03/22 06:28:02;;;;;;;22.90;8.63;;;4.50;98.30;;;;;;5174373;23;20215;-80
2021/03/22 06:30:05;;;;;;;24.65;8.98;;;4.60;98.30;;;;;;5165922;23;20253;-80
2021/03/22 06:32:14;;;;;;;23.67;7.35;;;4.60;98.30;;;;;;5174930;23;20280;-80
2021/03/22 06:34:26;;;;;;;20.45;7.75;;;4.60;98.30;;;;;;5174855;23;20224;-81
2021/03/22 06:36:28;;;;;;;17.65;6.47;;;4.70;98.30;;;;;;5174824;23;20201;-80
2021/03/22 06:38:31;;;;;;;19.77;8.82;;;4.60;98.30;;;;;;5174579;23;20200;-80
2021/03/22 06:40:34;;;;;;;21.02;7.10;;;4.50;98.30;;;;;;5174593;23;20283;-80
2021/03/22 06:42:37;;;;;;;25.85;8.88;;;4.60;98.30;;;;;;5174518;23;20197;-80
2021/03/22 06:44:40;;;;;;;16.23;7.55;;;4.60;98.30;;;;;;5174872;23;20211;-80
2021/03/22 06:46:56;;;;;;;18.40;7.65;;;4.60;98.30;;;;;;5175524;23;20541;-80
2021/03/22 06:49:01;;;;;;;16.67;6.80;;;4.60;98.30;;;;;;5166046;23;20208;-81
2021/03/22 06:51:20;;;;;;;16.52;6.25;;;4.70;98.30;;;;;;5167056;23;20201;-80
2021/03/22 06:53:35;;;;;;;13.05;6.82;;;4.70;98.30;;;;;;5167077;23;20305;-80
2021/03/22 06:55:40;;;;;;;20.47;8.80;;;4.70;98.30;;;;;;5167044;23;20207;-81
2021/03/22 06:57:51;;;;;;;21.00;7.75;;;4.70;98.30;;;;;;5167379;23;20447;-80
2021/03/22 07:00:08;;;;;;;19.25;8.00;;;4.80;98.30;;;;;;5166777;23;20202;-81
2021/03/22 07:02:17;;;;;;;22.05;8.30;;;4.80;98.30;;;;;;5175354;23;20240;-81
2021/03/22 07:04:29;;;;;;;25.02;7.95;;;4.70;98.30;;;;;;5176804;23;20201;-81
2021/03/22 07:06:31;;;;;;;24.73;6.80;;;4.70;98.30;;;;;;5175335;23;20295;-80
2021/03/22 07:08:40;;;;;;;22.02;7.85;;;4.70;98.30;;;;;;5167133;23;20668;-80
2021/03/22 07:10:45;;;;;;;19.25;6.60;;;4.70;98.30;;;;;;5167088;23;20204;-81
2021/03/22 07:12:47;;;;;;;19.23;6.30;;;4.80;98.30;;;;;;5176577;23;20212;-81
2021/03/22 07:14:49;;;;;;;15.07;6.30;;;4.90;98.30;;;;;;5176713;23;20451;-81
2021/03/22 07:17:05;;;;;;;14.90;7.77;;;4.90;98.30;;;;;;5167689;23;20218;-81
2021/03/22 07:19:15;;;;;;;11.77;6.43;;;4.90;98.30;;;;;;5175677;23;20748;-81
2021/03/22 07:21:20;;;;;;;18.43;8.20;;;4.90;98.30;;;;;;5167923;23;20211;-81
2021/03/22 07:23:57;;;;;;;25.60;9.67;;;5.10;98.30;;;;;;5167993;23;20447;-81
2021/03/22 07:26:10;;;;;;;15.13;6.97;;;5.20;98.30;;;;;;5167723;23;20966;-81
2021/03/22 07:28:16;;;;;;;18.43;7.00;;;5.30;98.30;;;;;;5167480;23;20451;-81
2021/03/22 07:30:26;;;;;;;16.70;6.30;;;5.20;98.30;;;;;;5166985;23;20452;-81
2021/03/22 07:32:51;;;;;;;35.63;17.23;;;5.20;98.30;;;;;;5175488;23;20795;-81
2021/03/22 07:35:05;;;;;;;305.73;168.30;;;5.40;98.30;;;;;;5176804;23;20460;-81
2021/03/22 07:37:21;;;;;;;172.97;78.57;;;5.50;98.30;;;;;;5167575;23;20487;-81
2021/03/22 07:39:38;;;;;;;12.83;6.60;;;5.60;98.30;;;;;;5165972;23;20449;-81
2021/03/22 07:41:53;;;;;;;13.43;6.68;;;5.60;98.30;;;;;;5175013;23;20510;-80
2021/03/22 07:44:15;;;;;;;19.00;7.87;;;5.50;98.30;;;;;;5166807;23;20673;-80
2021/03/22 07:46:30;;;;;;;17.53;6.53;;;5.60;98.30;;;;;;5175398;23;20484;-81
2021/03/22 07:48:45;;;;;;;14.40;6.50;;;5.60;98.30;;;;;;5177166;23;20448;-81
2021/03/22 07:50:52;;;;;;;14.93;5.83;;;5.60;98.30;;;;;;5168732;23;20540;-81
2021/03/22 07:52:58;;;;;;;14.43;6.57;;;5.60;98.30;;;;;;5177737;23;20494;-81
2021/03/22 07:55:25;;;;;;;14.07;5.67;;;5.80;98.30;;;;;;5168832;23;21032;-81
2021/03/22 07:57:43;;;;;;;16.93;6.53;;;5.90;98.30;;;;;;5168772;23;20460;-81
2021/03/22 07:59:51;;;;;;;14.47;6.90;;;5.90;98.30;;;;;;5168275;23;20804;-81
2021/03/22 08:02:13;;;;;;;27.67;12.53;;;6.00;98.30;;;;;;5168524;23;20486;-81
2021/03/22 08:04:41;;;;;;;72.17;31.73;;;6.10;98.30;;;;;;5169135;23;20449;-81
2021/03/22 08:06:55;;;;;;;60.80;22.90;;;6.10;98.30;;;;;;5177164;23;20485;-81
2021/03/22 08:09:11;;;;;;;21.00;8.13;;;6.20;98.30;;;;;;5176187;23;20451;-80
2021/03/22 08:11:20;;;;;;;14.70;6.23;;;6.30;98.30;;;;;;5177148;23;20470;-81
2021/03/22 08:13:38;;;;;;;20.30;6.80;;;6.40;98.30;;;;;;5178338;23;20451;-82
2021/03/22 08:15:49;;;;;;;22.40;6.40;;;6.50;98.30;;;;;;5169258;23;20534;-81
2021/03/22 08:18:19;;;;;;;11.23;6.90;;;6.40;98.30;;;;;;5177928;23;21233;-81
2021/03/22 08:20:25;;;;;;;17.13;6.53;;;6.50;98.30;;;;;;5169038;23;20458;-81
2021/03/22 08:22:33;;;;;;;17.57;7.00;;;6.60;98.30;;;;;;5176020;23;20469;-83
2021/03/22 08:24:42;;;;;;;15.73;7.67;;;6.70;98.30;;;;;;5172397;23;20442;-81
2021/03/22 08:26:51;;;;;;;12.17;6.87;;;6.90;98.30;;;;;;5175165;23;20546;-81
2021/03/22 08:29:07;;;;;;;19.10;6.80;;;7.00;98.30;;;;;;5166100;23;20482;-81
2021/03/22 08:31:12;;;;;;;13.10;6.13;;;7.20;98.30;;;;;;5175483;23;20447;-81
2021/03/22 08:33:21;;;;;;;18.37;7.17;;;7.10;98.30;;;;;;5176212;23;20949;-81
2021/03/22 08:35:29;;;;;;;16.93;6.10;;;7.30;98.30;;;;;;5171049;23;20458;-82
2021/03/22 08:37:36;;;;;;;11.93;5.67;;;7.50;98.30;;;;;;5187689;23;20512;-83
2021/03/22 08:39:44;;;;;;;17.80;6.90;;;7.70;98.30;;;;;;5189753;23;20444;-81
2021/03/22 08:41:55;;;;;;;16.00;5.93;;;7.90;98.30;;;;;;5182881;23;20451;-82
2021/03/22 08:44:02;;;;;;;15.43;6.10;;;7.90;98.30;;;;;;5190335;23;20448;-82
2021/03/22 08:46:25;;;;;;;12.27;5.63;;;7.90;98.30;;;;;;5177719;23;20465;-81
2021/03/22 08:48:29;;;;;;;15.37;6.23;;;7.90;98.30;;;;;;5180967;23;20527;-83
2021/03/22 08:50:34;;;;;;;12.73;5.40;;;7.80;98.30;;;;;;5189732;23;20555;-82
2021/03/22 08:52:39;;;;;;;17.30;6.40;;;7.80;98.30;;;;;;5170444;23;20462;-82
2021/03/22 08:54:41;;;;;;;11.83;5.43;;;7.60;98.30;;;;;;5177673;23;20479;-82
2021/03/22 08:56:49;;;;;;;15.47;6.20;;;7.60;98.30;;;;;;5168093;23;20418;-82
2021/03/22 08:58:56;;;;;;;11.63;5.70;;;7.70;98.30;;;;;;5175572;23;20485;-81
2021/03/22 09:01:23;;;;;;;11.87;6.13;;;8.00;98.30;;;;;;5166352;23;20451;-82
2021/03/22 09:03:32;;;;;;;10.57;5.50;;;8.10;98.30;;;;;;5168025;23;20465;-83
2021/03/22 09:05:35;;;;;;;11.13;5.40;;;8.30;98.30;;;;;;5168352;23;20455;-82
2021/03/22 09:07:38;;;;;;;8.53;4.90;;;8.50;98.30;;;;;;5168598;23;20426;-82
2021/03/22 09:09:42;;;;;;;10.53;6.10;;;8.60;98.30;;;;;;5176067;23;20525;-82
2021/03/22 09:11:46;;;;;;;16.97;5.50;;;8.70;98.30;;;;;;5175787;23;20450;-81
2021/03/22 09:18:28;;;;;;;15.00;5.80;;;9.20;98.30;;;;;;5209518;22;20478;-81
2021/03/22 09:21:26;;;;;;;16.33;5.20;;;9.40;98.30;;;;;;5212138;22;20455;-82
2021/03/22 09:24:45;;;;;;;8.53;5.10;;;9.60;98.30;;;;;;5124314;23;20430;-83
2021/03/22 09:26:58;;;;;;;9.50;4.97;;;9.80;98.30;;;;;;5224469;22;20453;-82
2021/03/22 09:29:33;;;;;;;12.10;5.43;;;9.90;98.30;;;;;;5213454;22;20641;-83
2021/03/22 09:31:41;;;;;;;8.67;4.57;;;10.10;98.30;;;;;;5206288;22;20437;-83
2021/03/22 09:33:57;;;;;;;11.10;4.37;;;10.40;98.30;;;;;;5226119;22;20456;-83
2021/03/22 09:36:09;;;;;;;13.57;5.20;;;10.70;98.30;;;;;;5226675;22;20416;-82
2021/03/22 09:38:39;;;;;;;11.47;6.23;;;10.80;98.00;;;;;;5226763;22;20447;-83
2021/03/22 09:40:58;;;;;;;11.80;4.97;;;11.10;97.60;;;;;;5225934;22;20453;-82
2021/03/22 09:43:23;;;;;;;12.60;5.20;;;11.40;97.00;;;;;;5226440;22;20529;-82
2021/03/22 09:45:26;;;;;;;11.20;5.03;;;11.70;95.80;;;;;;5226427;22;20446;-83
2021/03/22 09:47:32;;;;;;;19.00;7.30;;;11.90;94.30;;;;;;5226841;22;20449;-83
2021/03/22 09:50:11;;;;;;;20.60;12.30;;;12.10;93.80;;;;;;5219432;22;20453;-82
2021/03/22 09:52:25;;;;;;;10.37;5.40;;;12.30;93.20;;;;;;5215008;22;20537;-82
2021/03/22 09:54:34;;;;;;;11.50;4.70;;;12.40;92.90;;;;;;5233348;22;20456;-82
2021/03/22 09:56:39;;;;;;;9.77;4.60;;;12.30;91.50;;;;;;5237039;22;20448;-83
2021/03/22 09:58:43;;;;;;;11.87;5.17;;;12.00;91.60;;;;;;5230752;22;20452;-83
2021/03/22 10:00:59;;;;;;;11.97;5.10;;;12.10;92.00;;;;;;5227555;22;20473;-83
2021/03/22 10:03:32;;;;;;;10.77;4.53;;;12.00;91.90;;;;;;5227357;22;20481;-85
2021/03/22 10:05:58;;;;;;;76.17;39.97;;;11.90;90.10;;;;;;5229793;22;20472;-82
2021/03/22 10:08:17;;;;;;;94.10;54.87;;;12.10;91.70;;;;;;5230821;22;20434;-83
2021/03/22 10:10:35;;;;;;;21.43;11.37;;;12.60;91.60;;;;;;5229544;22;20449;-82
2021/03/22 10:12:46;;;;;;;17.60;6.20;;;13.10;90.00;;;;;;5230189;22;20528;-82
2021/03/22 10:15:09;;;;;;;12.93;4.97;;;13.30;89.00;;;;;;5230191;22;20521;-82
2021/03/22 10:17:23;;;;;;;7.70;5.07;;;13.30;87.50;;;;;;5229402;22;20498;-82
2021/03/22 10:19:28;;;;;;;6.40;4.80;;;12.90;88.00;;;;;;5220319;22;20449;-82
2021/03/22 10:21:33;;;;;;;82.77;51.77;;;13.00;88.20;;;;;;5230239;22;20438;-82
2021/03/22 10:23:47;;;;;;;52.43;31.67;;;13.30;88.90;;;;;;5226300;22;20457;-83
2021/03/22 10:25:53;;;;;;;22.37;12.80;;;13.70;88.80;;;;;;5226037;22;20537;-83
2021/03/22 10:28:01;;;;;;;13.97;7.33;;;14.00;88.40;;;;;;5225577;22;20577;-82
2021/03/22 10:30:12;;;;;;;15.60;8.23;;;13.70;85.90;;;;;;5225087;22;20445;-82
2021/03/22 10:32:19;;;;;;;11.67;6.70;;;13.20;86.40;;;;;;5226443;22;20477;-84
2021/03/22 10:34:24;;;;;;;8.13;5.20;;;13.10;86.40;;;;;;5226724;22;20471;-82
2021/03/22 10:36:29;;;;;;;9.20;5.63;;;13.20;85.70;;;;;;5227298;22;20851;-82
2021/03/22 10:38:35;;;;;;;10.90;6.03;;;13.70;86.30;;;;;;5226092;22;21015;-83
2021/03/22 10:40:39;;;;;;;7.80;5.20;;;14.20;85.40;;;;;;5225891;22;20445;-83
2021/03/22 10:42:42;;;;;;;8.37;5.23;;;14.50;84.30;;;;;;5226876;22;20497;-82
2021/03/22 10:44:44;;;;;;;26.93;15.30;;;13.90;84.80;;;;;;5226980;22;20480;-83
2021/03/22 10:46:47;;;;;;;29.83;18.13;;;14.00;85.70;;;;;;5216826;22;20489;-84
2021/03/22 10:49:00;;;;;;;50.10;33.07;;;14.40;83.80;;;;;;5218121;22;20595;-83
2021/03/22 10:51:15;;;;;;;25.10;16.27;;;14.90;83.40;;;;;;5218576;22;20472;-83
2021/03/22 10:53:18;;;;;;;13.70;7.90;;;15.30;81.40;;;;;;5218720;22;20479;-83
2021/03/22 10:55:27;;;;;;;11.13;8.73;;;15.60;81.50;;;;;;5219954;22;20967;-82
2021/03/22 10:57:33;;;;;;;11.80;6.30;;;15.70;81.00;;;;;;5231009;22;20487;-84
2021/03/22 10:59:40;;;;;;;7.80;5.30;;;15.80;79.10;;;;;;5221319;22;20457;-84
2021/03/22 11:01:46;;;;;;;7.70;4.20;;;15.40;79.40;;;;;;5220685;22;20452;-83
2021/03/22 11:03:50;;;;;;;9.07;4.30;;;15.30;79.50;;;;;;5221563;22;20499;-83
2021/03/22 11:06:14;;;;;;;5.23;3.80;;;15.70;79.20;;;;;;5217590;22;20457;-82
2021/03/22 11:08:25;;;;;;;4.90;4.00;;;16.40;77.50;;;;;;5217501;22;20780;-82
2021/03/22 11:10:28;;;;;;;4.70;3.87;;;16.80;76.20;;;;;;5227317;22;20809;-83